Time;durP1;ratioP1;P1;durP2;ratioP2;P2;SDS_P1;SDS_P2;PMS_P1;PMS_P2;Temp;Humidity;BMP_temperature;BMP_pressure;BME280_temperature;BME280_humidity;BME280_pressure;Samples;Min_cycle;Max_cycle;Signal;HPM_P1;HPM_P2
2022/01/13 00:02:13;;;;;;;40.60;12.45;;;;;;;;;;5031646;28;20017;-82
2022/01/13 00:04:39;;;;;;;39.72;13.02;;;;;;;;;;5043319;28;20083;-82
2022/01/13 00:07:04;;;;;;;41.65;13.10;;;;;;;;;;5050540;28;20071;-82
2022/01/13 00:09:30;;;;;;;41.55;13.57;;;;;;;;;;5031127;28;20033;-83
2022/01/13 00:11:57;;;;;;;39.80;12.32;;;;;;;;;;5049403;28;20044;-82
2022/01/13 00:14:39;;;;;;;42.67;12.93;;;;;;;;;;5050298;28;20037;-82
2022/01/13 00:17:27;;;;;;;51.95;13.50;;;;;;;;;;5033750;28;20025;-82
2022/01/13 00:20:47;;;;;;;41.38;12.75;;;;;;;;;;5054557;28;21188;-82
2022/01/13 00:25:32;;;;;;;73.43;13.45;;;;;;;;;;5042224;28;20036;-82
2022/01/13 00:27:59;;;;;;;45.20;13.00;;;;;;;;;;5052751;28;20048;-81
2022/01/13 00:30:26;;;;;;;45.65;12.48;;;;;;;;;;5031543;28;20041;-82
2022/01/13 00:32:51;;;;;;;55.28;13.18;;;;;;;;;;5058202;28;20517;-83
2022/01/13 00:35:17;;;;;;;46.92;12.75;;;;;;;;;;5054837;28;20022;-83
2022/01/13 00:37:42;;;;;;;46.88;13.30;;;;;;;;;;5056075;28;20493;-82
2022/01/13 00:40:09;;;;;;;53.60;13.73;;;;;;;;;;5048011;28;20037;-82
2022/01/13 00:42:34;;;;;;;43.42;12.57;;;;;;;;;;5032607;28;20045;-83
2022/01/13 00:45:01;;;;;;;45.05;13.50;;;;;;;;;;5051661;28;20063;-82
2022/01/13 00:47:29;;;;;;;47.85;14.07;;;;;;;;;;5037996;28;20174;-82
2022/01/13 00:49:57;;;;;;;72.82;13.98;;;;;;;;;;5062494;28;20063;-82
2022/01/13 00:52:23;;;;;;;55.28;12.88;;;;;;;;;;5055739;28;20032;-82
2022/01/13 00:54:48;;;;;;;47.28;12.85;;;;;;;;;;5059613;28;20041;-83
2022/01/13 00:57:13;;;;;;;73.63;15.15;;;;;;;;;;5052527;28;20041;-83
2022/01/13 00:59:39;;;;;;;63.97;13.27;;;;;;;;;;5054863;28;20048;-82
2022/01/13 01:02:04;;;;;;;62.75;13.10;;;;;;;;;;5048867;28;20033;-82
2022/01/13 01:04:29;;;;;;;66.05;13.32;;;;;;;;;;5052994;28;20035;-83
2022/01/13 01:06:55;;;;;;;66.18;13.15;;;;;;;;;;5035925;28;20072;-83
2022/01/13 01:09:32;;;;;;;72.65;14.60;;;;;;;;;;5053490;28;20123;-83
2022/01/13 01:11:58;;;;;;;43.22;13.55;;;;;;;;;;5050189;28;20576;-82
2022/01/13 01:14:24;;;;;;;57.20;12.85;;;;;;;;;;5051751;28;20020;-82
2022/01/13 01:16:50;;;;;;;42.05;12.50;;;;;;;;;;5051253;28;20777;-82
2022/01/13 01:19:25;;;;;;;49.60;11.93;;;;;;;;;;5061889;28;20043;-82
2022/01/13 01:22:39;;;;;;;51.13;14.20;;;;;;;;;;5060298;28;20505;-82
2022/01/13 01:27:26;;;;;;;;;;;;;;;;;;5050358;28;20052;-83
2022/01/13 01:29:57;;;;;;;50.67;13.48;;;;;;;;;;5054538;28;19917;-82
2022/01/13 01:32:23;;;;;;;65.38;14.35;;;;;;;;;;5051786;28;20440;-82
2022/01/13 01:34:56;;;;;;;66.20;14.57;;;;;;;;;;5053369;28;20028;-83
2022/01/13 01:37:26;;;;;;;45.60;13.30;;;;;;;;;;5054276;28;20101;-82
2022/01/13 01:39:53;;;;;;;45.85;14.15;;;;;;;;;;5050338;28;20033;-83
2022/01/13 01:42:19;;;;;;;44.97;14.25;;;;;;;;;;5049466;28;21081;-83
2022/01/13 01:44:47;;;;;;;48.20;12.90;;;;;;;;;;5031157;28;20437;-83
2022/01/13 01:47:15;;;;;;;43.75;13.63;;;;;;;;;;5048265;28;20616;-81
2022/01/13 01:49:46;;;;;;;68.55;13.07;;;;;;;;;;5052142;28;20044;-82
2022/01/13 01:52:13;;;;;;;57.50;14.52;;;;;;;;;;5051240;28;20035;-83
2022/01/13 01:54:39;;;;;;;59.05;14.38;;;;;;;;;;5057067;28;20079;-82
2022/01/13 01:57:05;;;;;;;42.05;12.60;;;;;;;;;;5032397;28;20065;-82
2022/01/13 01:59:33;;;;;;;52.92;14.02;;;;;;;;;;5050862;28;20040;-82
2022/01/13 02:01:59;;;;;;;55.13;15.68;;;;;;;;;;5038579;28;20675;-83
2022/01/13 02:04:26;;;;;;;60.30;15.30;;;;;;;;;;5054335;28;20506;-82
2022/01/13 02:06:54;;;;;;;81.10;15.00;;;;;;;;;;5063218;28;20040;-82
2022/01/13 02:09:20;;;;;;;60.60;15.90;;;;;;;;;;5049257;28;20120;-82
2022/01/13 02:11:50;;;;;;;57.17;15.50;;;;;;;;;;5066400;28;20119;-83
2022/01/13 02:17:14;;;;;;;50.22;15.75;;;;;;;;;;5023879;28;20418;-82
2022/01/13 02:19:44;;;;;;;53.90;16.98;;;;;;;;;;5066661;28;20040;-82
2022/01/13 02:22:09;;;;;;;58.45;16.23;;;;;;;;;;5061399;28;20045;-82
2022/01/13 02:24:36;;;;;;;58.50;16.63;;;;;;;;;;5051819;28;20065;-82
2022/01/13 02:27:03;;;;;;;57.70;14.50;;;;;;;;;;5053886;28;20410;-82
2022/01/13 02:29:28;;;;;;;49.20;14.60;;;;;;;;;;5048779;28;20070;-82
2022/01/13 02:31:53;;;;;;;51.85;15.13;;;;;;;;;;5038205;28;20044;-82
2022/01/13 02:34:19;;;;;;;54.28;15.65;;;;;;;;;;5048977;28;20040;-82
2022/01/13 02:36:46;;;;;;;56.05;16.80;;;;;;;;;;5053927;28;20033;-82
2022/01/13 02:39:11;;;;;;;49.00;14.32;;;;;;;;;;5056552;28;20029;-82
2022/01/13 02:41:37;;;;;;;52.55;15.93;;;;;;;;;;5060404;28;20040;-82
2022/01/13 02:44:11;;;;;;;46.50;14.65;;;;;;;;;;5051676;28;20047;-82
2022/01/13 02:49:06;;;;;;;69.65;16.30;;;;;;;;;;5051268;28;20040;-82
2022/01/13 02:51:32;;;;;;;52.38;16.17;;;;;;;;;;5054155;28;20044;-82
2022/01/13 02:53:58;;;;;;;63.30;16.77;;;;;;;;;;5051015;28;20037;-81
2022/01/13 02:56:23;;;;;;;69.53;16.45;;;;;;;;;;5070141;28;20086;-82
2022/01/13 02:58:49;;;;;;;74.35;15.85;;;;;;;;;;5060854;28;20038;-82
2022/01/13 03:01:15;;;;;;;53.22;15.52;;;;;;;;;;5058938;28;20471;-82
2022/01/13 03:03:41;;;;;;;80.22;16.17;;;;;;;;;;5040861;28;20047;-82
2022/01/13 03:06:27;;;;;;;72.25;16.00;;;;;;;;;;5053240;28;20067;-82
2022/01/13 03:08:53;;;;;;;57.60;17.35;;;;;;;;;;5032928;28;20068;-81
2022/01/13 03:11:19;;;;;;;78.38;17.45;;;;;;;;;;5052099;28;20078;-82
2022/01/13 03:13:44;;;;;;;100.95;15.95;;;;;;;;;;5052134;28;20025;-82
2022/01/13 03:16:14;;;;;;;88.90;16.65;;;;;;;;;;5054080;28;20052;-82
2022/01/13 03:18:39;;;;;;;97.22;16.55;;;;;;;;;;5063092;28;20040;-82
2022/01/13 03:21:06;;;;;;;90.15;16.38;;;;;;;;;;5056171;28;20075;-82
2022/01/13 03:23:36;;;;;;;89.15;16.98;;;;;;;;;;5056877;28;20034;-82
2022/01/13 03:26:02;;;;;;;102.20;17.88;;;;;;;;;;5054780;28;20025;-82
2022/01/13 03:28:37;;;;;;;75.90;17.13;;;;;;;;;;5057551;28;20710;-82
2022/01/13 03:31:04;;;;;;;74.80;17.88;;;;;;;;;;5068812;28;20414;-82
2022/01/13 03:33:29;;;;;;;110.30;18.95;;;;;;;;;;5066855;28;20025;-81
2022/01/13 03:35:56;;;;;;;112.35;16.75;;;;;;;;;;5065168;28;20044;-81
2022/01/13 03:38:22;;;;;;;82.20;16.83;;;;;;;;;;5048001;28;20032;-82
2022/01/13 03:40:47;;;;;;;86.78;16.90;;;;;;;;;;5050816;28;20032;-82
2022/01/13 03:43:15;;;;;;;75.25;16.42;;;;;;;;;;5060393;28;20047;-82
2022/01/13 03:45:40;;;;;;;58.03;16.45;;;;;;;;;;5062260;28;20037;-82
2022/01/13 03:48:07;;;;;;;55.53;15.70;;;;;;;;;;5052899;28;20067;-82
2022/01/13 03:50:33;;;;;;;71.90;15.10;;;;;;;;;;5061046;28;20505;-82
2022/01/13 03:53:01;;;;;;;56.70;15.38;;;;;;;;;;5044570;28;20024;-82
2022/01/13 03:55:35;;;;;;;91.97;16.23;;;;;;;;;;5072725;28;20044;-82
2022/01/13 03:58:38;;;;;;;69.80;14.98;;;;;;;;;;5048211;28;20036;-82
2022/01/13 04:01:42;;;;;;;90.88;16.95;;;;;;;;;;5049335;28;20032;-81
2022/01/13 04:04:07;;;;;;;75.75;14.60;;;;;;;;;;5038537;28;20060;-82
2022/01/13 04:06:38;;;;;;;80.30;14.98;;;;;;;;;;5052030;28;20036;-82
2022/01/13 04:09:09;;;;;;;74.85;15.15;;;;;;;;;;5036211;28;20041;-82
2022/01/13 04:11:34;;;;;;;99.68;15.77;;;;;;;;;;5066009;28;20067;-82
2022/01/13 04:14:01;;;;;;;95.13;15.48;;;;;;;;;;5052082;28;20048;-82
2022/01/13 04:16:33;;;;;;;117.10;17.45;;;;;;;;;;5050097;28;20041;-82
2022/01/13 04:19:04;;;;;;;104.80;15.98;;;;;;;;;;5062262;28;20071;-82
2022/01/13 04:21:31;;;;;;;132.43;17.50;;;;;;;;;;5049747;28;20052;-82
2022/01/13 04:23:57;;;;;;;118.72;16.20;;;;;;;;;;5047144;28;20037;-82
2022/01/13 04:26:30;;;;;;;156.90;16.65;;;;;;;;;;5057014;28;20112;-82
2022/01/13 04:29:17;;;;;;;92.07;14.95;;;;;;;;;;5056801;28;20017;-81
2022/01/13 04:31:46;;;;;;;101.53;15.52;;;;;;;;;;5050897;28;20450;-82
2022/01/13 04:34:12;;;;;;;114.10;17.17;;;;;;;;;;5062441;28;20044;-82
2022/01/13 04:36:38;;;;;;;90.43;15.80;;;;;;;;;;5051934;28;20036;-82
2022/01/13 04:39:05;;;;;;;95.47;15.68;;;;;;;;;;5063652;28;20463;-82
2022/01/13 04:41:34;;;;;;;132.63;15.77;;;;;;;;;;5049630;28;20071;-82
2022/01/13 04:44:02;;;;;;;98.00;16.23;;;;;;;;;;5060406;28;20037;-82
2022/01/13 04:46:28;;;;;;;95.32;15.90;;;;;;;;;;5056375;28;20040;-82
2022/01/13 04:48:53;;;;;;;92.57;15.00;;;;;;;;;;5038286;28;20044;-82
2022/01/13 04:51:19;;;;;;;119.13;16.52;;;;;;;;;;5051937;28;20057;-82
2022/01/13 04:53:45;;;;;;;131.23;17.15;;;;;;;;;;5035729;28;20514;-82
2022/01/13 04:56:14;;;;;;;108.05;15.30;;;;;;;;;;5061303;28;20016;-82
2022/01/13 04:58:40;;;;;;;145.05;15.90;;;;;;;;;;5050547;28;20117;-82
2022/01/13 05:01:06;;;;;;;110.35;15.77;;;;;;;;;;5053327;28;20082;-81
2022/01/13 05:03:32;;;;;;;83.68;14.63;;;;;;;;;;5051140;28;20049;-82
2022/01/13 05:05:57;;;;;;;87.95;14.23;;;;;;;;;;5037055;28;20035;-82
2022/01/13 05:08:22;;;;;;;123.55;15.18;;;;;;;;;;5054422;28;20025;-82
2022/01/13 05:10:48;;;;;;;124.03;14.80;;;;;;;;;;5054568;28;20053;-82
2022/01/13 05:13:13;;;;;;;59.33;13.40;;;;;;;;;;5037130;28;20040;-82
2022/01/13 05:15:42;;;;;;;129.80;14.60;;;;;;;;;;5054971;28;20055;-82
2022/01/13 05:21:01;;;;;;;103.82;13.90;;;;;;;;;;5057512;28;20045;-82
2022/01/13 05:23:26;;;;;;;111.78;13.85;;;;;;;;;;5051455;28;20729;-82
2022/01/13 05:25:52;;;;;;;119.57;12.50;;;;;;;;;;5048638;28;20147;-82
2022/01/13 05:28:17;;;;;;;130.02;13.38;;;;;;;;;;5067913;28;20032;-81
2022/01/13 05:30:43;;;;;;;57.67;10.00;;;;;;;;;;5064931;28;20040;-82
2022/01/13 05:33:08;;;;;;;72.75;11.93;;;;;;;;;;5031841;28;20036;-82
2022/01/13 05:35:36;;;;;;;70.28;12.82;;;;;;;;;;5061944;28;20037;-82
2022/01/13 05:38:03;;;;;;;153.18;12.88;;;;;;;;;;5040436;28;20025;-82
2022/01/13 05:40:28;;;;;;;157.15;13.45;;;;;;;;;;5061014;28;20039;-82
2022/01/13 05:42:54;;;;;;;153.23;14.15;;;;;;;;;;5057760;28;20025;-83
2022/01/13 05:45:21;;;;;;;141.98;13.48;;;;;;;;;;5058198;28;20094;-82
2022/01/13 05:47:49;;;;;;;98.78;13.18;;;;;;;;;;5048659;28;20033;-82
2022/01/13 05:50:17;;;;;;;143.52;12.93;;;;;;;;;;5047903;28;20037;-82
2022/01/13 05:52:43;;;;;;;134.25;14.27;;;;;;;;;;5052598;28;20526;-83
2022/01/13 05:55:09;;;;;;;103.40;13.13;;;;;;;;;;5035027;28;20045;-82
2022/01/13 05:57:34;;;;;;;109.90;13.55;;;;;;;;;;5048721;28;20037;-82
2022/01/13 06:00:00;;;;;;;83.78;13.45;;;;;;;;;;5035740;28;20062;-82
2022/01/13 06:02:26;;;;;;;89.25;11.77;;;;;;;;;;5048314;28;20115;-82
2022/01/13 06:04:51;;;;;;;102.90;12.30;;;;;;;;;;5051412;28;20401;-82
2022/01/13 06:07:17;;;;;;;75.97;12.13;;;;;;;;;;5056996;28;20121;-82
2022/01/13 06:09:43;;;;;;;138.02;12.75;;;;;;;;;;5033790;28;20044;-82
2022/01/13 06:12:09;;;;;;;104.75;11.35;;;;;;;;;;5055322;28;20043;-82
2022/01/13 06:14:35;;;;;;;127.10;12.23;;;;;;;;;;5055516;28;20049;-82
2022/01/13 06:17:02;;;;;;;127.07;12.57;;;;;;;;;;5054987;28;20033;-83
2022/01/13 06:19:27;;;;;;;97.53;11.80;;;;;;;;;;5055281;28;20094;-82
2022/01/13 06:21:53;;;;;;;171.80;12.00;;;;;;;;;;5058642;28;20413;-82
2022/01/13 06:24:18;;;;;;;96.80;8.40;;;;;;;;;;5058456;28;20049;-82
2022/01/13 06:26:44;;;;;;;113.20;9.98;;;;;;;;;;5058937;28;20044;-79
2022/01/13 06:29:09;;;;;;;86.97;8.75;;;;;;;;;;5064143;28;20028;-80
2022/01/13 06:31:35;;;;;;;131.80;9.45;;;;;;;;;;5057879;28;20532;-81
2022/01/13 06:34:00;;;;;;;71.03;9.93;;;;;;;;;;5040077;28;20033;-80
2022/01/13 06:36:25;;;;;;;127.60;9.98;;;;;;;;;;5056751;28;20040;-78
2022/01/13 06:38:51;;;;;;;89.10;9.45;;;;;;;;;;5055693;28;20047;-81
2022/01/13 06:41:18;;;;;;;84.30;10.02;;;;;;;;;;5057691;28;20052;-83
2022/01/13 06:43:44;;;;;;;120.85;9.80;;;;;;;;;;5056072;28;20812;-81
2022/01/13 06:46:16;;;;;;;370.52;72.13;;;;;;;;;;5055774;28;20036;-80
2022/01/13 06:48:43;;;;;;;137.45;13.25;;;;;;;;;;5055129;28;20029;-83
2022/01/13 06:51:09;;;;;;;104.95;12.50;;;;;;;;;;5045064;28;20414;-83
2022/01/13 06:53:34;;;;;;;115.20;10.55;;;;;;;;;;5057849;28;20672;-81
2022/01/13 06:56:00;;;;;;;83.95;8.27;;;;;;;;;;5055105;28;20025;-74
2022/01/13 06:58:27;;;;;;;152.05;11.43;;;;;;;;;;5037923;28;20383;-78
2022/01/13 07:00:52;;;;;;;63.33;9.13;;;;;;;;;;5053496;28;20045;-81
2022/01/13 07:03:20;;;;;;;145.63;10.38;;;;;;;;;;5053588;28;20083;-81
2022/01/13 07:05:46;;;;;;;142.98;12.20;;;;;;;;;;5053710;28;20040;-81
2022/01/13 07:08:11;;;;;;;161.05;11.27;;;;;;;;;;5039883;28;20085;-81
2022/01/13 07:10:37;;;;;;;107.60;9.07;;;;;;;;;;5057795;28;20476;-82
2022/01/13 07:13:03;;;;;;;129.68;10.38;;;;;;;;;;5043474;28;20037;-82
2022/01/13 07:15:29;;;;;;;100.60;10.98;;;;;;;;;;5052892;28;20582;-83
2022/01/13 07:17:54;;;;;;;116.07;8.70;;;;;;;;;;5051399;28;20044;-84
2022/01/13 07:20:20;;;;;;;94.63;8.18;;;;;;;;;;5051968;28;20033;-84
2022/01/13 07:22:45;;;;;;;71.32;9.73;;;;;;;;;;5052530;28;20040;-81
2022/01/13 07:25:11;;;;;;;121.85;10.45;;;;;;;;;;5051109;28;20044;-81
2022/01/13 07:27:36;;;;;;;66.68;8.60;;;;;;;;;;5050697;28;20478;-73
2022/01/13 07:30:02;;;;;;;118.78;9.05;;;;;;;;;;5043223;28;20047;-73
2022/01/13 07:32:27;;;;;;;94.63;9.07;;;;;;;;;;5054148;28;20048;-72
2022/01/13 07:34:53;;;;;;;91.07;8.40;;;;;;;;;;5064828;28;20028;-71
2022/01/13 07:37:18;;;;;;;65.80;8.25;;;;;;;;;;5060901;28;20036;-72
2022/01/13 07:39:44;;;;;;;79.97;8.15;;;;;;;;;;5061204;28;20037;-72
2022/01/13 07:42:09;;;;;;;52.60;7.85;;;;;;;;;;5058340;28;20045;-71
2022/01/13 07:44:35;;;;;;;40.03;7.38;;;;;;;;;;5053264;28;20037;-72
2022/01/13 07:47:00;;;;;;;44.13;7.38;;;;;;;;;;5062555;28;20036;-71
2022/01/13 07:49:27;;;;;;;47.45;7.82;;;;;;;;;;5052728;28;20043;-73
2022/01/13 07:51:52;;;;;;;82.15;7.68;;;;;;;;;;5054038;28;20048;-73
2022/01/13 07:54:18;;;;;;;74.38;9.18;;;;;;;;;;5058780;28;20535;-73
2022/01/13 07:56:43;;;;;;;72.78;8.60;;;;;;;;;;5065169;28;20082;-73
2022/01/13 07:59:08;;;;;;;84.70;8.40;;;;;;;;;;5049988;28;20047;-73
2022/01/13 08:01:34;;;;;;;52.25;7.93;;;;;;;;;;5052812;28;20040;-72
2022/01/13 08:03:59;;;;;;;77.32;8.85;;;;;;;;;;5053039;28;21026;-77
2022/01/13 08:06:24;;;;;;;65.53;8.27;;;;;;;;;;5052064;28;20045;-77
2022/01/13 08:08:50;;;;;;;31.23;6.60;;;;;;;;;;5050324;28;20033;-72
2022/01/13 08:11:16;;;;;;;127.28;9.27;;;;;;;;;;5060768;28;20059;-73
2022/01/13 08:13:42;;;;;;;41.75;7.53;;;;;;;;;;5059662;28;20029;-74
2022/01/13 08:16:09;;;;;;;153.80;9.40;;;;;;;;;;5039136;28;20037;-72
2022/01/13 08:21:22;;;;;;;111.15;9.70;;;;;;;;;;5053412;28;20094;-73
2022/01/13 08:23:48;;;;;;;77.28;8.13;;;;;;;;;;5052431;28;20048;-72
2022/01/13 08:26:13;;;;;;;99.30;9.68;;;;;;;;;;5053867;28;20040;-73
2022/01/13 08:28:38;;;;;;;85.00;8.25;;;;;;;;;;5035899;28;20063;-75
2022/01/13 08:31:04;;;;;;;102.45;8.65;;;;;;;;;;5056015;28;20402;-76
2022/01/13 08:33:30;;;;;;;36.85;8.10;;;;;;;;;;5032087;28;20090;-71
2022/01/13 08:35:56;;;;;;;77.45;8.07;;;;;;;;;;5047389;28;20455;-71
2022/01/13 08:38:23;;;;;;;82.13;7.88;;;;;;;;;;5052965;28;20032;-70
2022/01/13 08:40:53;;;;;;;53.15;8.55;;;;;;;;;;5031821;28;20039;-74
2022/01/13 08:43:20;;;;;;;32.03;6.30;;;;;;;;;;5047840;28;20064;-72
2022/01/13 08:45:47;;;;;;;39.00;7.03;;;;;;;;;;5050488;28;20040;-72
2022/01/13 08:48:13;;;;;;;70.35;7.78;;;;;;;;;;5050776;28;20143;-72
2022/01/13 08:50:38;;;;;;;66.68;8.48;;;;;;;;;;5053852;28;20044;-73
2022/01/13 08:53:05;;;;;;;108.20;10.23;;;;;;;;;;5054364;28;20040;-72
2022/01/13 08:55:31;;;;;;;84.68;9.02;;;;;;;;;;5050962;28;20052;-72
2022/01/13 08:57:56;;;;;;;53.25;7.03;;;;;;;;;;5054594;28;20044;-72
2022/01/13 09:00:22;;;;;;;29.85;7.10;;;;;;;;;;5053008;28;20047;-72
2022/01/13 09:02:47;;;;;;;65.15;8.15;;;;;;;;;;5050052;28;20078;-72
2022/01/13 09:05:15;;;;;;;83.22;11.00;;;;;;;;;;5054257;28;20033;-74
2022/01/13 09:07:41;;;;;;;49.90;11.25;;;;;;;;;;5053019;28;20457;-73
2022/01/13 09:10:08;;;;;;;37.13;5.93;;;;;;;;;;5031658;28;20059;-74
2022/01/13 09:12:34;;;;;;;39.80;7.68;;;;;;;;;;5050193;28;20107;-73
2022/01/13 09:15:13;;;;;;;126.88;9.13;;;;;;;;;;5050555;28;20494;-76
2022/01/13 09:17:39;;;;;;;88.50;8.95;;;;;;;;;;5060781;28;20381;-77
2022/01/13 09:20:05;;;;;;;76.60;8.50;;;;;;;;;;5056930;28;20028;-78
2022/01/13 09:22:30;;;;;;;64.88;8.65;;;;;;;;;;5033506;28;20415;-77
2022/01/13 09:24:56;;;;;;;54.90;8.57;;;;;;;;;;5049030;28;20043;-74
2022/01/13 09:27:21;;;;;;;29.95;7.85;;;;;;;;;;5051629;28;20123;-74
2022/01/13 09:29:46;;;;;;;43.42;8.02;;;;;;;;;;5049535;28;20052;-74
2022/01/13 09:32:12;;;;;;;26.23;9.10;;;;;;;;;;5044356;28;20048;-76
2022/01/13 09:34:41;;;;;;;57.53;9.77;;;;;;;;;;5048603;28;20033;-76
2022/01/13 09:37:07;;;;;;;24.80;8.70;;;;;;;;;;5051010;28;20043;-76
2022/01/13 09:39:33;;;;;;;45.42;10.25;;;;;;;;;;5047220;28;20440;-77
2022/01/13 09:42:00;;;;;;;31.60;8.98;;;;;;;;;;5055410;28;20132;-72
2022/01/13 09:44:28;;;;;;;25.13;8.82;;;;;;;;;;5050156;28;20045;-73
2022/01/13 09:46:53;;;;;;;38.53;10.88;;;;;;;;;;5055238;28;20126;-74
2022/01/13 09:49:19;;;;;;;47.92;12.52;;;;;;;;;;5067647;28;20107;-71
2022/01/13 09:51:45;;;;;;;34.33;9.30;;;;;;;;;;5061300;28;20101;-76
2022/01/13 09:54:11;;;;;;;65.63;11.50;;;;;;;;;;5057904;28;20041;-75
2022/01/13 09:56:37;;;;;;;51.33;12.50;;;;;;;;;;5037240;28;20139;-75
2022/01/13 09:59:04;;;;;;;43.63;11.95;;;;;;;;;;5057552;28;20492;-75
2022/01/13 10:01:29;;;;;;;54.63;11.38;;;;;;;;;;5063770;28;20036;-74
2022/01/13 10:03:55;;;;;;;47.63;11.90;;;;;;;;;;5040738;28;20041;-75
2022/01/13 10:06:21;;;;;;;53.55;13.23;;;;;;;;;;5051164;28;20691;-74
2022/01/13 10:08:52;;;;;;;44.85;12.40;;;;;;;;;;5056449;28;20045;-74
2022/01/13 10:11:38;;;;;;;69.22;23.52;;;;;;;;;;5051100;28;20040;-74
2022/01/13 10:16:23;;;;;;;76.30;14.63;;;;;;;;;;5054002;28;20040;-73
2022/01/13 10:17:13;;;;;;;46.75;10.82;;;;;;;;;;5049531;28;20048;-75
2022/01/13 10:19:46;;;;;;;36.28;10.90;;;;;;;;;;5060416;28;20028;-73
2022/01/13 10:22:20;;;;;;;67.13;12.50;;;;;;;;;;5054252;28;20112;-72
2022/01/13 10:24:54;;;;;;;51.08;11.18;;;;;;;;;;5052175;28;20059;-73
2022/01/13 10:27:21;;;;;;;;;;;;;;;;;;5055663;28;20047;-77
2022/01/13 10:29:46;;;;;;;88.97;11.60;;;;;;;;;;5053318;28;21323;-73
2022/01/13 10:32:33;;;;;;;57.30;11.02;;;;;;;;;;5057523;28;20052;-76
2022/01/13 10:35:03;;;;;;;74.78;11.35;;;;;;;;;;5053384;28;20044;-77
2022/01/13 10:37:40;;;;;;;72.57;12.63;;;;;;;;;;5044219;28;20039;-72
2022/01/13 10:40:12;;;;;;;52.45;10.82;;;;;;;;;;5034574;28;20095;-74
2022/01/13 10:43:06;;;;;;;46.90;11.90;;;;;;;;;;5039579;28;20045;-74
2022/01/13 10:45:35;;;;;;;46.42;10.25;;;;;;;;;;5048382;28;21183;-76
2022/01/13 10:48:04;;;;;;;65.80;16.15;;;;;;;;;;5051212;28;20045;-75
2022/01/13 10:50:58;;;;;;;42.00;14.90;;;;;;;;;;5059728;28;20067;-77
2022/01/13 10:53:27;;;;;;;66.07;16.05;;;;;;;;;;5050205;28;20557;-77
2022/01/13 10:56:05;;;;;;;66.45;16.45;;;;;;;;;;5052311;28;20068;-77
2022/01/13 10:58:33;;;;;;;38.40;11.55;;;;;;;;;;5052500;28;20112;-75
2022/01/13 11:01:00;;;;;;;35.20;12.73;;;;;;;;;;5033978;28;20048;-74
2022/01/13 11:03:28;;;;;;;31.65;10.48;;;;;;;;;;5052643;28;20029;-77
2022/01/13 11:05:57;;;;;;;57.60;12.07;;;;;;;;;;5051692;28;20041;-75
2022/01/13 11:08:25;;;;;;;44.42;12.20;;;;;;;;;;5052257;28;20048;-74
2022/01/13 11:10:52;;;;;;;32.00;13.38;;;;;;;;;;5052226;28;20048;-73
2022/01/13 11:13:19;;;;;;;27.13;10.05;;;;;;;;;;5052855;28;20155;-75
2022/01/13 11:15:49;;;;;;;41.38;10.82;;;;;;;;;;5052650;28;20069;-75
2022/01/13 11:18:17;;;;;;;48.67;11.70;;;;;;;;;;5053584;28;20049;-70
2022/01/13 11:20:42;;;;;;;39.13;11.43;;;;;;;;;;5061765;28;20525;-73
2022/01/13 11:23:08;;;;;;;39.70;12.18;;;;;;;;;;5050900;28;20036;-73
2022/01/13 11:25:34;;;;;;;49.38;14.48;;;;;;;;;;5037619;28;20033;-73
2022/01/13 11:28:00;;;;;;;53.70;14.70;;;;;;;;;;5055648;28;20110;-73
2022/01/13 11:30:27;;;;;;;46.67;13.90;;;;;;;;;;5038593;28;20040;-79
2022/01/13 11:32:55;;;;;;;56.65;12.88;;;;;;;;;;5060654;28;20036;-71
2022/01/13 11:35:25;;;;;;;49.75;13.50;;;;;;;;;;5054687;28;20040;-74
2022/01/13 11:37:51;;;;;;;51.33;14.35;;;;;;;;;;5054568;28;20092;-74
2022/01/13 11:40:25;;;;;;;37.83;13.85;;;;;;;;;;5060275;28;20032;-74
2022/01/13 11:42:51;;;;;;;28.95;12.25;;;;;;;;;;5058852;28;20106;-72
2022/01/13 11:45:19;;;;;;;27.20;11.32;;;;;;;;;;5051098;28;20082;-73
2022/01/13 11:47:45;;;;;;;33.80;11.95;;;;;;;;;;5049380;28;20068;-72
2022/01/13 11:50:21;;;;;;;33.08;12.00;;;;;;;;;;5049543;28;20029;-73
2022/01/13 11:52:53;;;;;;;24.02;10.23;;;;;;;;;;5057344;28;20029;-73
2022/01/13 11:55:26;;;;;;;38.63;13.25;;;;;;;;;;5081180;28;20516;-71
2022/01/13 11:58:11;;;;;;;31.05;12.07;;;;;;;;;;5024214;28;20136;-74
2022/01/13 12:00:36;;;;;;;34.20;12.85;;;;;;;;;;5054333;28;20041;-74
2022/01/13 12:03:22;;;;;;;40.35;13.27;;;;;;;;;;5050169;28;20037;-72
2022/01/13 12:05:47;;;;;;;37.17;13.00;;;;;;;;;;5043213;28;20048;-75
2022/01/13 12:08:36;;;;;;;39.47;12.52;;;;;;;;;;5053741;28;20024;-73
2022/01/13 12:11:01;;;;;;;43.67;15.52;;;;;;;;;;5039888;28;20048;-75
2022/01/13 12:13:44;;;;;;;46.33;16.02;;;;;;;;;;5040866;28;20036;-74
2022/01/13 12:16:10;;;;;;;42.53;15.50;;;;;;;;;;5053103;28;20094;-75
2022/01/13 12:18:59;;;;;;;47.60;16.45;;;;;;;;;;5056201;28;20648;-73
2022/01/13 12:21:40;;;;;;;57.60;19.88;;;;;;;;;;5051139;28;20059;-75
2022/01/13 12:24:07;;;;;;;51.33;18.13;;;;;;;;;;5052528;28;20433;-74
2022/01/13 12:26:32;;;;;;;53.78;17.00;;;;;;;;;;5066094;28;20033;-74
2022/01/13 12:29:11;;;;;;;44.75;16.38;;;;;;;;;;5056290;28;20032;-73
2022/01/13 12:31:47;;;;;;;49.38;17.70;;;;;;;;;;5046254;28;20522;-74
2022/01/13 12:34:32;;;;;;;53.15;17.52;;;;;;;;;;5056753;28;20052;-76
2022/01/13 12:37:19;;;;;;;60.42;18.83;;;;;;;;;;5051394;28;20076;-75
2022/01/13 12:39:59;;;;;;;60.25;20.92;;;;;;;;;;5059824;28;20139;-73
2022/01/13 12:42:53;;;;;;;60.88;20.10;;;;;;;;;;5052510;28;20048;-71
2022/01/13 12:45:29;;;;;;;59.72;18.92;;;;;;;;;;5054897;28;20166;-74
2022/01/13 12:48:07;;;;;;;65.05;21.52;;;;;;;;;;5050946;28;20112;-73
2022/01/13 12:50:44;;;;;;;57.67;19.10;;;;;;;;;;5053567;28;20038;-75
2022/01/13 12:53:19;;;;;;;54.97;18.95;;;;;;;;;;5049143;28;20024;-74
2022/01/13 12:56:15;;;;;;;50.80;17.67;;;;;;;;;;5052393;28;20053;-74
2022/01/13 12:58:45;;;;;;;61.75;18.42;;;;;;;;;;5019063;28;20044;-72
2022/01/13 13:01:16;;;;;;;60.10;19.35;;;;;;;;;;5057147;28;20025;-74
2022/01/13 13:03:42;;;;;;;48.38;17.20;;;;;;;;;;5048997;28;20406;-71
2022/01/13 13:06:13;;;;;;;64.82;21.30;;;;;;;;;;5055561;28;20051;-71
2022/01/13 13:08:46;;;;;;;60.05;19.50;;;;;;;;;;5054194;28;20047;-71
2022/01/13 13:11:12;;;;;;;58.35;20.35;;;;;;;;;;5054500;28;20587;-71
2022/01/13 13:13:49;;;;;;;57.85;19.80;;;;;;;;;;5053656;28;20064;-71
2022/01/13 13:16:16;;;;;;;61.38;20.20;;;;;;;;;;5027985;28;20048;-72
2022/01/13 13:18:42;;;;;;;52.72;17.48;;;;;;;;;;5049355;28;20036;-72
2022/01/13 13:21:10;;;;;;;58.47;17.92;;;;;;;;;;5059631;28;20044;-72
2022/01/13 13:23:39;;;;;;;51.28;16.70;;;;;;;;;;5047672;28;20570;-73
2022/01/13 13:26:08;;;;;;;50.30;18.48;;;;;;;;;;5050603;28;20020;-72
2022/01/13 13:28:48;;;;;;;48.03;16.27;;;;;;;;;;5042269;28;20047;-75
2022/01/13 13:31:17;;;;;;;48.05;17.05;;;;;;;;;;5052917;28;20067;-75
2022/01/13 13:33:44;;;;;;;53.35;18.05;;;;;;;;;;5051488;28;20769;-76
2022/01/13 13:36:13;;;;;;;48.05;16.10;;;;;;;;;;5045145;28;20075;-75
2022/01/13 13:39:09;;;;;;;51.88;17.40;;;;;;;;;;5040301;28;20283;-73
2022/01/13 13:41:40;;;;;;;49.75;16.73;;;;;;;;;;5045250;28;20044;-71
2022/01/13 13:44:07;;;;;;;45.13;16.55;;;;;;;;;;5028428;28;20230;-71
2022/01/13 13:46:33;;;;;;;45.47;16.00;;;;;;;;;;5049292;28;20043;-73
2022/01/13 13:49:00;;;;;;;48.90;16.00;;;;;;;;;;5048194;28;20037;-73
2022/01/13 13:51:30;;;;;;;53.40;17.25;;;;;;;;;;5052693;28;20039;-73
2022/01/13 13:54:07;;;;;;;52.70;18.17;;;;;;;;;;5034855;28;20162;-75
2022/01/13 13:56:41;;;;;;;54.50;18.55;;;;;;;;;;5035898;28;20025;-75
2022/01/13 13:59:12;;;;;;;52.50;16.75;;;;;;;;;;5055608;28;20051;-78
2022/01/13 14:01:38;;;;;;;45.90;17.33;;;;;;;;;;5044277;28;20049;-74
2022/01/13 14:04:04;;;;;;;43.53;16.52;;;;;;;;;;5047290;28;20152;-76
2022/01/13 14:06:38;;;;;;;42.33;17.05;;;;;;;;;;5046667;28;20037;-80
2022/01/13 14:09:03;;;;;;;51.55;17.73;;;;;;;;;;5045304;28;20044;-75
2022/01/13 14:11:45;;;;;;;47.30;15.65;;;;;;;;;;5051392;28;20101;-77
2022/01/13 14:14:12;;;;;;;38.72;15.90;;;;;;;;;;5048451;28;20036;-77
2022/01/13 14:16:38;;;;;;;51.58;16.25;;;;;;;;;;5048676;28;20055;-74
2022/01/13 14:19:09;;;;;;;42.83;15.90;;;;;;;;;;5032705;28;20033;-75
2022/01/13 14:21:48;;;;;;;38.40;15.77;;;;;;;;;;5049224;28;20055;-71
2022/01/13 14:24:13;;;;;;;39.83;16.98;;;;;;;;;;5053015;28;20040;-72
2022/01/13 14:26:38;;;;;;;36.28;15.93;;;;;;;;;;5029161;28;20078;-72
2022/01/13 14:29:04;;;;;;;40.63;15.43;;;;;;;;;;5061779;28;20486;-73
2022/01/13 14:31:37;;;;;;;33.75;12.75;;;;;;;;;;5029196;28;20403;-74
2022/01/13 14:34:02;;;;;;;34.15;13.52;;;;;;;;;;5047081;28;20075;-76
2022/01/13 14:36:27;;;;;;;40.95;15.20;;;;;;;;;;5049192;28;20044;-74
2022/01/13 14:38:55;;;;;;;35.47;13.93;;;;;;;;;;5053196;28;20147;-75
2022/01/13 14:41:26;;;;;;;37.22;14.52;;;;;;;;;;5051560;28;20079;-74
2022/01/13 14:44:05;;;;;;;33.13;13.25;;;;;;;;;;5056744;28;20051;-75
2022/01/13 14:46:43;;;;;;;38.45;13.55;;;;;;;;;;5032772;28;20032;-74